Time;durP1;ratioP1;P1;durP2;ratioP2;P2;SDS_P1;SDS_P2;PMS_P1;PMS_P2;Temp;Humidity;BMP_temperature;BMP_pressure;BME280_temperature;BME280_humidity;BME280_pressure;Samples;Min_cycle;Max_cycle;Signal;HPM_P1;HPM_P2
2022/09/06 00:00:17;;;;;;;5.22;2.47;;;;;;;18.42;59.88;101683.94;2071577;28;32255;-71
2022/09/06 00:01:19;;;;;;;5.18;2.22;;;;;;;18.40;59.91;101683.13;2071974;28;36738;-71
2022/09/06 00:02:20;;;;;;;5.15;3.08;;;;;;;18.40;60.16;101679.53;2063234;28;30684;-71
2022/09/06 00:03:26;;;;;;;3.67;2.47;;;;;;;18.37;60.07;101683.25;2054653;28;35564;-71
2022/09/06 00:04:28;;;;;;;3.85;2.80;;;;;;;18.36;60.17;101675.19;2064253;28;31772;-71
2022/09/06 00:05:31;;;;;;;4.95;2.80;;;;;;;18.37;60.24;101679.66;2072261;28;32186;-71
2022/09/06 00:06:33;;;;;;;3.47;2.47;;;;;;;18.35;60.15;101679.72;2063649;28;26276;-71
2022/09/06 00:07:35;;;;;;;4.35;2.60;;;;;;;18.34;60.21;101677.06;2055449;28;39597;-71
2022/09/06 00:08:38;;;;;;;4.03;2.97;;;;;;;18.32;60.38;101669.00;2063447;28;27015;-71
2022/09/06 00:09:40;;;;;;;2.50;2.30;;;;;;;18.31;60.43;101673.56;2071819;28;35335;-71
2022/09/06 00:10:42;;;;;;;3.20;2.40;;;;;;;18.29;60.50;101672.75;2072172;28;34209;-71
2022/09/06 00:11:47;;;;;;;4.03;2.65;;;;;;;18.31;60.23;101676.28;2062475;28;37918;-71
2022/09/06 00:12:48;;;;;;;2.97;2.67;;;;;;;18.30;60.17;101670.91;2064027;28;33020;-71
2022/09/06 00:13:50;;;;;;;6.88;2.58;;;;;;;18.31;60.69;101673.56;2072413;28;33634;-71
2022/09/06 00:14:52;;;;;;;6.25;2.63;;;;;;;18.29;60.38;101669.16;2071475;28;37605;-71
2022/09/06 00:15:54;;;;;;;3.58;2.25;;;;;;;18.28;60.34;101676.41;2072126;28;35896;-71
2022/09/06 00:16:56;;;;;;;4.70;2.80;;;;;;;18.25;60.57;101672.94;2071875;28;28791;-71
2022/09/06 00:17:59;;;;;;;3.28;2.47;;;;;;;18.25;60.56;101678.34;2072158;28;33432;-71
2022/09/06 00:19:03;;;;;;;4.15;2.70;;;;;;;18.24;60.67;101673.91;2062371;28;28253;-71
2022/09/06 00:20:08;;;;;;;4.78;2.92;;;;;;;18.22;60.64;101668.53;2063951;28;34313;-71
2022/09/06 00:21:29;;;;;;;4.80;2.75;;;;;;;18.21;60.75;101672.19;2071905;28;33263;-71
2022/09/06 00:22:32;;;;;;;5.00;3.00;;;;;;;18.20;60.79;101662.31;2073027;28;20923;-71
2022/09/06 00:23:34;;;;;;;3.25;2.35;;;;;;;18.18;60.46;101669.63;2071915;28;31083;-70
2022/09/06 00:24:36;;;;;;;3.65;2.55;;;;;;;18.19;61.04;101665.97;2071634;28;40455;-70
2022/09/06 00:25:38;;;;;;;3.60;2.78;;;;;;;18.16;61.35;101662.50;2071173;28;34837;-71
2022/09/06 00:26:39;;;;;;;4.50;2.70;;;;;;;18.18;61.00;101666.00;2072101;28;31310;-70
2022/09/06 00:27:41;;;;;;;3.55;2.70;;;;;;;18.17;60.86;101665.16;2063332;28;20830;-70
2022/09/06 00:28:46;;;;;;;3.17;2.70;;;;;;;18.18;60.98;101661.50;2063558;28;30475;-70
2022/09/06 00:29:47;;;;;;;4.57;2.50;;;;;;;18.18;61.20;101663.31;2071167;28;31624;-70
2022/09/06 00:30:51;;;;;;;5.28;2.47;;;;;;;18.17;60.98;101650.72;2072405;28;20034;-70
2022/09/06 00:31:53;;;;;;;4.53;2.70;;;;;;;18.17;60.65;101648.00;2072250;28;30686;-70
2022/09/06 00:32:56;;;;;;;5.30;3.00;;;;;;;18.14;60.92;101651.72;2072252;28;28390;-70
2022/09/06 00:33:58;;;;;;;3.90;2.90;;;;;;;18.14;61.21;101654.44;2072041;28;28450;-71
2022/09/06 00:34:59;;;;;;;4.22;2.78;;;;;;;18.14;61.35;101638.16;2071498;28;33222;-71
2022/09/06 00:36:04;;;;;;;4.20;2.60;;;;;;;18.11;61.21;101639.19;2063755;28;20912;-70
2022/09/06 00:37:05;;;;;;;6.22;2.90;;;;;;;18.12;61.49;101646.38;2063130;28;34666;-68
2022/09/06 00:38:09;;;;;;;4.95;2.90;;;;;;;18.10;61.54;101631.13;2071746;28;27526;-69
2022/09/06 00:39:11;;;;;;;3.92;2.60;;;;;;;18.13;61.32;101641.84;2071897;28;36462;-72
2022/09/06 00:40:13;;;;;;;5.28;3.00;;;;;;;18.11;61.45;101641.91;2072228;28;26030;-69
2022/09/06 00:41:20;;;;;;;4.88;3.08;;;;;;;18.11;61.04;101632.91;2071498;28;30208;-70
2022/09/06 00:42:24;;;;;;;8.00;2.90;;;;;;;18.10;61.25;101636.53;2071812;28;33009;-70
2022/09/06 00:43:25;;;;;;;5.75;2.72;;;;;;;18.08;61.36;101643.88;2071854;28;29573;-70
2022/09/06 00:44:27;;;;;;;3.28;2.88;;;;;;;18.06;61.53;101646.63;2071104;28;37862;-71
2022/09/06 00:45:32;;;;;;;3.63;2.90;;;;;;;18.08;61.58;101654.69;2072227;28;20035;-71
2022/09/06 00:46:36;;;;;;;4.18;2.65;;;;;;;18.06;61.63;101640.34;2071329;28;37147;-69
2022/09/06 00:47:41;;;;;;;4.30;2.80;;;;;;;18.04;61.55;101645.81;2063258;28;32576;-72
2022/09/06 00:48:45;;;;;;;5.13;2.75;;;;;;;18.04;61.50;101645.81;2064370;28;36360;-69
2022/09/06 00:49:54;;;;;;;3.83;3.08;;;;;;;18.02;61.78;101657.69;2062377;28;39040;-69
2022/09/06 00:51:02;;;;;;;6.63;3.00;;;;;;;18.01;61.79;101654.06;2064226;28;35784;-69
2022/09/06 00:52:09;;;;;;;5.07;3.40;;;;;;;18.01;61.86;101653.19;2062798;28;29065;-70
2022/09/06 00:53:12;;;;;;;3.53;3.20;;;;;;;17.99;61.73;101649.69;2065009;28;20116;-70
2022/09/06 00:54:13;;;;;;;3.38;2.90;;;;;;;17.99;61.63;101655.97;2071233;28;36466;-70
2022/09/06 00:55:17;;;;;;;5.28;3.20;;;;;;;17.98;61.93;101656.94;2055042;28;36266;-69
2022/09/06 00:56:21;;;;;;;4.25;2.75;;;;;;;17.97;61.93;101657.88;2056339;28;31437;-70
2022/09/06 00:57:26;;;;;;;3.85;2.90;;;;;;;17.97;62.04;101659.72;2062770;28;29225;-70
2022/09/06 00:58:28;;;;;;;4.45;2.85;;;;;;;17.97;61.94;101663.28;2065083;28;31649;-70
2022/09/06 00:59:34;;;;;;;3.40;3.10;;;;;;;17.93;62.08;101657.13;2072650;28;31213;-70
2022/09/06 01:00:36;;;;;;;8.05;2.90;;;;;;;17.90;62.26;101651.81;2072628;28;31945;-71
2022/09/06 01:01:38;;;;;;;5.05;3.15;;;;;;;17.91;62.55;101653.59;2063810;28;23185;-69
2022/09/06 01:02:40;;;;;;;3.63;2.85;;;;;;;17.87;62.27;101651.97;2064180;28;31489;-70
2022/09/06 01:03:42;;;;;;;6.15;3.25;;;;;;;17.86;62.01;101661.03;2071199;28;30723;-71
2022/09/06 01:04:44;;;;;;;4.30;3.33;;;;;;;17.87;62.19;101651.06;2073017;28;28797;-70
2022/09/06 01:05:56;;;;;;;4.00;3.15;;;;;;;17.86;62.64;101657.47;2073231;28;20038;-70
2022/09/06 01:07:41;;;;;;;3.55;3.15;;;;;;;17.84;62.68;101641.22;2072513;28;34590;-69
2022/09/06 01:08:45;;;;;;;4.60;3.17;;;;;;;17.81;62.23;101635.94;2072638;28;27568;-70
2022/09/06 01:10:11;;;;;;;4.90;3.28;;;;;;;17.80;62.94;101639.59;2072522;28;34887;-71
2022/09/06 01:11:29;;;;;;;4.60;3.30;;;;;;;17.79;62.42;101639.66;2071628;28;39559;-71
2022/09/06 01:13:00;;;;;;;3.55;3.15;;;;;;;17.77;62.72;101636.13;2071504;28;37830;-71
2022/09/06 01:14:33;;;;;;;3.63;3.22;;;;;;;17.75;62.90;101641.63;2063025;28;29318;-70
2022/09/06 01:15:53;;;;;;;4.55;3.03;;;;;;;17.75;62.87;101641.63;2070870;28;21035;-70
2022/09/06 01:17:25;;;;;;;4.70;3.42;;;;;;;17.72;63.14;101645.31;2071744;28;36056;-70
2022/09/06 01:19:24;;;;;;;3.60;2.78;;;;;;;17.69;63.02;101644.56;2062764;28;20113;-70
2022/09/06 01:20:37;;;;;;;5.00;3.40;;;;;;;17.68;63.42;101642.81;2067839;28;33060;-70
2022/09/06 01:21:54;;;;;;;5.47;3.40;;;;;;;17.69;63.61;101641.84;2062980;28;31863;-70
2022/09/06 01:23:10;;;;;;;7.35;3.53;;;;;;;17.67;63.67;101641.91;2066147;28;40800;-70
2022/09/06 01:25:00;;;;;;;5.10;3.70;;;;;;;17.68;63.41;101651.81;2062641;28;26734;-70
2022/09/06 01:26:32;;;;;;;7.47;3.03;;;;;;;17.63;63.58;101648.41;2062237;28;34788;-70
2022/09/06 01:27:46;;;;;;;9.25;3.45;;;;;;;17.65;64.02;101653.78;2067500;28;35445;-70
2022/09/06 01:28:51;;;;;;;6.85;3.28;;;;;;;17.65;63.67;101651.06;2070888;28;39646;-70
2022/09/06 01:30:03;;;;;;;4.50;3.58;;;;;;;17.67;63.91;101651.88;2070395;28;31895;-70
2022/09/06 01:31:26;;;;;;;3.45;3.15;;;;;;;17.64;63.71;101647.47;2071214;28;36179;-70
2022/09/06 01:33:18;;;;;;;6.90;3.63;;;;;;;17.63;64.13;101652.94;2070540;28;36341;-72
2022/09/06 01:34:51;;;;;;;5.15;3.72;;;;;;;17.61;64.05;101646.72;2054466;28;21599;-70
2022/09/06 01:36:02;;;;;;;5.68;3.40;;;;;;;17.58;64.12;101645.00;2054136;28;29804;-70
2022/09/06 01:37:11;;;;;;;5.72;3.80;;;;;;;17.59;63.83;101644.06;2054308;28;38691;-70
2022/09/06 01:38:13;;;;;;;6.32;3.90;;;;;;;17.56;63.80;101639.66;2046622;28;30715;-71
2022/09/06 01:39:38;;;;;;;5.43;3.70;;;;;;;17.56;64.11;101645.06;2046343;28;33766;-70
2022/09/06 01:40:40;;;;;;;6.35;3.72;;;;;;;17.57;64.26;101637.84;2071717;28;33757;-70
2022/09/06 01:41:42;;;;;;;6.57;3.90;;;;;;;17.54;63.91;101636.13;2071401;28;31866;-70
2022/09/06 01:42:46;;;;;;;7.32;3.90;;;;;;;17.54;64.35;101632.53;2071348;28;37451;-70
2022/09/06 01:43:50;;;;;;;5.03;4.30;;;;;;;17.54;64.38;101632.53;2062827;28;29362;-70
2022/09/06 01:45:24;;;;;;;6.90;3.80;;;;;;;17.53;64.45;101631.69;2062651;28;33074;-71
2022/09/06 01:46:51;;;;;;;6.32;4.20;;;;;;;17.48;64.82;101625.56;2062804;28;29327;-70
2022/09/06 01:48:30;;;;;;;5.45;3.92;;;;;;;17.46;64.64;101626.56;2069075;28;32892;-69
2022/09/06 01:49:55;;;;;;;4.53;4.15;;;;;;;17.45;65.07;101636.50;2071040;28;42920;-71
2022/09/06 01:51:35;;;;;;;6.57;4.82;;;;;;;17.41;65.04;101625.84;2071671;28;36243;-70
2022/09/06 01:52:53;;;;;;;7.53;4.13;;;;;;;17.42;65.00;101620.38;2071940;28;20042;-70
2022/09/06 01:54:50;;;;;;;5.80;3.88;;;;;;;17.38;65.11;101632.28;2071728;28;34117;-71
2022/09/06 01:56:16;;;;;;;4.88;4.35;;;;;;;17.36;65.53;101635.06;2071172;28;35776;-71
2022/09/06 01:57:49;;;;;;;6.93;4.65;;;;;;;17.33;65.69;101637.00;2062595;28;35672;-69
2022/09/06 01:59:21;;;;;;;5.75;4.40;;;;;;;17.31;65.36;101636.19;2070100;28;32330;-69
2022/09/06 02:00:24;;;;;;;5.00;3.83;;;;;;;17.28;65.71;101631.78;2071274;28;20070;-69
2022/09/06 02:02:02;;;;;;;6.00;4.75;;;;;;;17.25;65.64;101629.19;2062390;28;30212;-70
2022/09/06 02:03:13;;;;;;;5.55;4.28;;;;;;;17.23;66.01;101624.75;2067748;28;34897;-69
2022/09/06 02:04:29;;;;;;;5.55;4.10;;;;;;;17.21;66.07;101629.38;2071419;28;40764;-70
2022/09/06 02:05:42;;;;;;;5.88;4.38;;;;;;;17.21;65.89;101623.94;2071745;28;20134;-70
2022/09/06 02:06:58;;;;;;;6.80;4.47;;;;;;;17.18;66.43;101630.38;2063066;28;34220;-70
2022/09/06 02:08:14;;;;;;;5.50;4.43;;;;;;;17.15;66.35;101628.66;2066849;28;20161;-71
2022/09/06 02:09:23;;;;;;;6.65;3.85;;;;;;;17.13;66.81;101622.44;2054683;28;25287;-70
2022/09/06 02:10:39;;;;;;;4.82;4.10;;;;;;;17.15;66.55;101625.06;2064608;28;31945;-70
2022/09/06 02:11:56;;;;;;;4.70;4.30;;;;;;;17.11;66.02;101624.31;2054570;28;30673;-69
2022/09/06 02:13:00;;;;;;;6.13;4.38;;;;;;;17.11;66.36;101621.63;2066016;28;32056;-70
2022/09/06 02:14:14;;;;;;;6.47;4.15;;;;;;;17.11;66.46;101624.31;2069855;28;36972;-68
2022/09/06 02:15:33;;;;;;;6.32;4.20;;;;;;;17.11;66.73;101627.03;2062846;28;20186;-70
2022/09/06 02:16:40;;;;;;;5.13;4.32;;;;;;;17.10;66.43;101622.56;2064737;28;35274;-70
2022/09/06 02:17:57;;;;;;;5.25;4.32;;;;;;;17.09;66.64;101619.91;2070774;28;33890;-70
2022/09/06 02:19:16;;;;;;;10.95;3.97;;;;;;;17.09;66.39;101617.22;2062960;28;31556;-70
2022/09/06 02:20:27;;;;;;;5.50;4.45;;;;;;;17.09;66.81;101618.09;2067753;28;34299;-70
2022/09/06 02:21:37;;;;;;;6.43;4.40;;;;;;;17.08;66.14;101613.59;2072703;28;26969;-70
2022/09/06 02:22:44;;;;;;;4.65;3.72;;;;;;;17.10;66.55;101617.16;2064224;28;31359;-70
2022/09/06 02:23:48;;;;;;;6.75;4.22;;;;;;;17.10;66.44;101614.47;2063487;28;39121;-70
2022/09/06 02:24:52;;;;;;;6.75;4.30;;;;;;;17.09;66.49;101609.09;2064307;28;22709;-70
2022/09/06 02:26:18;;;;;;;6.13;4.22;;;;;;;17.12;66.49;101609.84;2063745;28;35718;-69
2022/09/06 02:27:20;;;;;;;4.85;4.35;;;;;;;17.09;66.74;101607.28;2064353;28;36415;-70
2022/09/06 02:28:25;;;;;;;8.02;4.28;;;;;;;17.10;66.43;101609.03;2055747;28;27788;-70
2022/09/06 02:29:29;;;;;;;5.53;4.60;;;;;;;17.10;66.76;101614.47;2057135;28;20063;-69
2022/09/06 02:30:38;;;;;;;5.82;4.43;;;;;;;17.10;66.70;101613.56;2064251;28;20256;-71
2022/09/06 02:32:19;;;;;;;4.60;4.20;;;;;;;17.08;66.85;101607.31;2055698;28;37819;-70
2022/09/06 02:33:27;;;;;;;;;;;;;;;17.11;66.49;101607.22;2063431;28;20915;-69
2022/09/06 02:34:29;;;;;;;5.03;4.05;;;;;;;17.11;66.52;101608.09;2064611;28;37440;-71
2022/09/06 02:35:40;;;;;;;5.85;3.95;;;;;;;17.11;66.67;101615.31;2063616;28;36381;-70
2022/09/06 02:36:42;;;;;;;6.43;4.00;;;;;;;17.10;66.47;101610.84;2059798;28;34865;-70
2022/09/06 02:37:44;;;;;;;6.60;4.05;;;;;;;17.09;66.97;101615.38;2065376;28;38687;-70
2022/09/06 02:38:49;;;;;;;4.40;4.00;;;;;;;17.10;66.45;101621.66;2063685;28;35999;-70
2022/09/06 02:39:54;;;;;;;4.68;4.20;;;;;;;17.09;66.47;101614.50;2064895;28;29872;-70
2022/09/06 02:40:55;;;;;;;5.15;4.00;;;;;;;17.07;66.38;101611.00;2063415;28;37237;-70
2022/09/06 02:41:58;;;;;;;5.65;4.20;;;;;;;17.06;66.47;101611.91;2055733;28;32940;-72
2022/09/06 02:42:59;;;;;;;5.10;4.00;;;;;;;17.04;66.79;101606.56;2064315;28;20043;-69
2022/09/06 02:44:01;;;;;;;4.75;4.05;;;;;;;17.01;66.67;101609.38;2071478;28;34496;-71
2022/09/06 02:45:04;;;;;;;5.57;4.18;;;;;;;17.07;66.84;101595.63;2072222;28;36682;-71
2022/09/06 02:46:05;;;;;;;6.10;4.05;;;;;;;17.07;66.13;101606.44;2073194;28;20042;-71
2022/09/06 02:47:08;;;;;;;7.32;4.18;;;;;;;17.05;66.81;101604.72;2072871;28;28369;-70
2022/09/06 02:48:09;;;;;;;5.03;4.53;;;;;;;17.07;66.82;101606.44;2063735;28;37867;-71
2022/09/06 02:49:11;;;;;;;6.75;4.28;;;;;;;17.04;66.53;101605.69;2063309;28;36751;-71
2022/09/06 02:50:14;;;;;;;6.20;3.72;;;;;;;17.04;67.03;101598.44;2071876;28;35451;-71
2022/09/06 02:51:16;;;;;;;4.65;4.10;;;;;;;17.03;66.53;101602.13;2072208;28;32222;-71
2022/09/06 02:52:17;;;;;;;5.00;3.92;;;;;;;17.04;66.68;101598.44;2063644;28;36095;-71
2022/09/06 02:53:19;;;;;;;4.85;4.10;;;;;;;17.05;66.63;101602.03;2063438;28;35727;-71
2022/09/06 02:54:23;;;;;;;6.18;4.00;;;;;;;17.05;66.92;101596.63;2072580;28;20042;-71
2022/09/06 02:55:30;;;;;;;6.47;4.07;;;;;;;17.04;67.02;101601.16;2072435;28;20935;-71
2022/09/06 02:56:33;;;;;;;4.93;4.43;;;;;;;17.06;66.30;101592.97;2072313;28;34809;-71
2022/09/06 02:57:34;;;;;;;4.53;4.13;;;;;;;17.05;66.46;101597.50;2072523;28;32527;-71
2022/09/06 02:58:36;;;;;;;6.05;4.32;;;;;;;17.04;66.75;101598.44;2071941;28;34447;-70
2022/09/06 02:59:38;;;;;;;5.47;4.18;;;;;;;17.04;66.65;101594.88;2072383;28;32005;-71
2022/09/06 03:00:40;;;;;;;5.43;4.35;;;;;;;17.02;67.04;101591.34;2072469;28;37272;-70
2022/09/06 03:01:42;;;;;;;4.40;4.00;;;;;;;17.03;67.04;101595.78;2062767;28;35107;-69
2022/09/06 03:02:44;;;;;;;5.50;4.45;;;;;;;17.01;67.09;101595.84;2064471;28;29069;-70
2022/09/06 03:03:45;;;;;;;5.35;4.05;;;;;;;17.00;66.83;101588.69;2063094;28;37645;-69
2022/09/06 03:04:47;;;;;;;6.05;4.55;;;;;;;17.00;67.13;101594.09;2063524;28;34771;-70
2022/09/06 03:05:52;;;;;;;5.80;4.25;;;;;;;17.06;66.85;101588.44;2072422;28;38081;-70
2022/09/06 03:06:56;;;;;;;5.35;4.10;;;;;;;17.05;66.64;101591.19;2072375;28;33867;-70
2022/09/06 03:07:58;;;;;;;4.30;4.00;;;;;;;17.04;66.99;101589.47;2071351;28;39549;-70
2022/09/06 03:09:00;;;;;;;4.75;4.30;;;;;;;17.03;66.85;101584.97;2072993;28;32572;-70
2022/09/06 03:10:03;;;;;;;4.75;4.32;;;;;;;17.06;66.88;101587.56;2071963;28;36554;-71
2022/09/06 03:11:08;;;;;;;4.38;3.97;;;;;;;17.03;67.07;101584.97;2064265;28;20031;-71
2022/09/06 03:12:10;;;;;;;5.60;4.07;;;;;;;17.03;66.75;101583.16;2063987;28;31296;-69
2022/09/06 03:13:12;;;;;;;7.30;4.68;;;;;;;17.03;67.16;101585.88;2072476;28;20149;-70
2022/09/06 03:14:15;;;;;;;4.65;4.25;;;;;;;17.05;67.49;101574.97;2072364;28;30619;-71
2022/09/06 03:15:18;;;;;;;5.55;4.20;;;;;;;17.05;66.95;101581.28;2071673;28;36515;-70
2022/09/06 03:16:22;;;;;;;4.63;4.10;;;;;;;17.04;67.42;101579.50;2071791;28;34148;-70
2022/09/06 03:17:24;;;;;;;4.65;4.30;;;;;;;17.04;66.53;101579.50;2072557;28;30270;-71
2022/09/06 03:18:29;;;;;;;4.93;4.45;;;;;;;17.08;67.43;101578.44;2071840;28;39479;-71
2022/09/06 03:19:30;;;;;;;5.10;4.55;;;;;;;17.06;67.32;101574.91;2071752;28;34046;-69
2022/09/06 03:20:32;;;;;;;5.05;4.47;;;;;;;17.07;67.39;101573.09;2072209;28;32010;-70
2022/09/06 03:21:37;;;;;;;4.47;4.07;;;;;;;17.10;66.81;101575.66;2063434;28;31576;-69
2022/09/06 03:22:39;;;;;;;4.80;4.30;;;;;;;17.12;67.00;101562.94;2063575;28;37324;-71
2022/09/06 03:23:41;;;;;;;5.30;4.22;;;;;;;17.14;66.67;101566.50;2072354;28;38343;-71
2022/09/06 03:24:46;;;;;;;6.07;4.55;;;;;;;17.12;67.05;101563.88;2072428;28;20100;-71
2022/09/06 03:25:48;;;;;;;7.38;4.78;;;;;;;17.12;67.04;101571.97;2072492;28;31320;-71
2022/09/06 03:26:50;;;;;;;4.75;4.22;;;;;;;17.12;66.87;101571.97;2054883;28;39993;-71
2022/09/06 03:27:52;;;;;;;5.50;4.50;;;;;;;17.11;67.04;101567.50;2047845;28;27796;-71
2022/09/06 03:28:56;;;;;;;4.82;4.40;;;;;;;17.10;66.93;101557.63;2063236;28;33983;-71
2022/09/06 03:29:58;;;;;;;7.45;4.78;;;;;;;17.12;67.25;101566.56;2064121;28;32596;-71
2022/09/06 03:31:00;;;;;;;6.32;4.43;;;;;;;17.14;67.13;101569.22;2063966;28;27892;-71
2022/09/06 03:32:02;;;;;;;5.40;4.53;;;;;;;17.15;67.24;101568.25;2064050;28;35593;-71
2022/09/06 03:33:06;;;;;;;6.70;4.55;;;;;;;17.16;66.99;101567.31;2072229;28;35977;-71
2022/09/06 03:34:07;;;;;;;5.60;4.82;;;;;;;17.17;67.19;101564.56;2071854;28;30947;-70
2022/09/06 03:35:11;;;;;;;7.65;4.40;;;;;;;17.20;67.38;101573.50;2071816;28;40196;-71
2022/09/06 03:36:14;;;;;;;8.00;4.68;;;;;;;17.20;66.41;101562.66;2072378;28;23413;-69
2022/09/06 03:37:18;;;;;;;6.32;4.80;;;;;;;17.20;67.00;101565.38;2072201;28;38502;-72
2022/09/06 03:38:22;;;;;;;5.55;4.50;;;;;;;17.21;66.74;101564.41;2072786;28;20608;-69
2022/09/06 03:39:24;;;;;;;5.38;4.40;;;;;;;17.18;66.74;101560.88;2063315;28;20046;-70
2022/09/06 03:40:25;;;;;;;5.50;5.00;;;;;;;17.19;66.50;101567.19;2063996;28;29242;-70
2022/09/06 03:41:32;;;;;;;4.60;4.20;;;;;;;17.18;66.75;101557.31;2072056;28;28924;-70
2022/09/06 03:42:33;;;;;;;4.50;4.10;;;;;;;17.18;67.12;101565.44;2072444;28;33065;-70
2022/09/06 03:43:35;;;;;;;5.13;4.53;;;;;;;17.19;66.87;101561.75;2071992;28;34744;-70
2022/09/06 03:45:08;;;;;;;4.80;4.40;;;;;;;17.20;67.09;101543.72;2071518;28;37846;-68
2022/09/06 03:46:33;;;;;;;5.45;4.88;;;;;;;17.22;66.57;101566.19;2072596;28;20112;-70
2022/09/06 03:47:35;;;;;;;5.82;4.47;;;;;;;17.21;67.05;101559.00;2072237;28;31320;-70
2022/09/06 03:48:37;;;;;;;6.82;4.82;;;;;;;17.22;67.24;101558.06;2072272;28;33030;-70
2022/09/06 03:49:38;;;;;;;5.50;5.00;;;;;;;17.21;66.93;101559.91;2071806;28;33179;-69
2022/09/06 03:50:50;;;;;;;4.93;4.38;;;;;;;17.23;66.94;101554.41;2071628;28;35367;-70
2022/09/06 03:51:52;;;;;;;7.15;5.00;;;;;;;17.23;67.16;101551.69;2063479;28;20042;-70
2022/09/06 03:52:54;;;;;;;6.00;4.75;;;;;;;17.23;67.09;101554.41;2063407;28;38727;-70
2022/09/06 03:53:56;;;;;;;6.38;4.70;;;;;;;17.23;66.56;101552.59;2072179;28;31194;-69
2022/09/06 03:54:58;;;;;;;8.85;4.50;;;;;;;17.23;66.88;101557.09;2072421;28;38027;-70
2022/09/06 03:56:00;;;;;;;8.18;4.80;;;;;;;17.25;67.14;101558.81;2072133;28;36755;-70
2022/09/06 03:57:02;;;;;;;5.63;4.47;;;;;;;17.23;67.23;101558.00;2071517;28;35546;-71
2022/09/06 03:58:04;;;;;;;9.40;5.07;;;;;;;17.24;66.91;101564.28;2071773;28;35035;-71
2022/09/06 03:59:05;;;;;;;5.20;4.75;;;;;;;17.26;66.99;101555.16;2072102;28;36669;-71
2022/09/06 04:00:08;;;;;;;7.75;4.80;;;;;;;17.29;66.81;101565.00;2071689;28;33769;-71
2022/09/06 04:01:13;;;;;;;7.15;4.82;;;;;;;17.30;66.66;101550.50;2064149;28;20768;-71
2022/09/06 04:02:17;;;;;;;6.13;4.85;;;;;;;17.31;66.57;101563.09;2063158;28;33916;-70
2022/09/06 04:03:19;;;;;;;4.82;4.35;;;;;;;17.31;66.56;101565.81;2071436;28;36249;-71
2022/09/06 04:04:21;;;;;;;8.68;4.93;;;;;;;17.36;66.46;101574.63;2063246;28;38688;-71
2022/09/06 04:05:23;;;;;;;5.78;5.13;;;;;;;17.35;66.52;101565.63;2063524;28;37320;-71
2022/09/06 04:06:24;;;;;;;6.32;5.07;;;;;;;17.37;66.74;101562.84;2072174;28;33351;-71
2022/09/06 04:07:28;;;;;;;4.93;4.18;;;;;;;17.41;66.30;101558.16;2063214;28;39589;-70
2022/09/06 04:08:31;;;;;;;5.85;5.20;;;;;;;17.41;66.22;101564.50;2062980;28;35354;-70
2022/09/06 04:09:33;;;;;;;9.05;5.07;;;;;;;17.46;66.04;101564.28;2071946;28;40350;-70
2022/09/06 04:10:37;;;;;;;5.50;5.00;;;;;;;17.46;66.31;101562.47;2072043;28;34451;-70
2022/09/06 04:11:39;;;;;;;4.68;4.15;;;;;;;17.45;66.43;101554.41;2063141;28;27791;-70
2022/09/06 04:12:44;;;;;;;5.38;4.70;;;;;;;17.44;66.05;101556.22;2063284;28;36388;-70
2022/09/06 04:13:46;;;;;;;5.20;4.47;;;;;;;17.44;66.32;101556.22;2072010;28;33816;-69
2022/09/06 04:14:48;;;;;;;5.13;4.63;;;;;;;17.44;66.42;101550.81;2071116;28;37414;-69
2022/09/06 04:15:51;;;;;;;5.15;4.70;;;;;;;17.46;65.94;101554.34;2072060;28;40924;-70
2022/09/06 04:16:53;;;;;;;5.50;5.10;;;;;;;17.47;66.09;101557.94;2063354;28;34733;-72
2022/09/06 04:17:55;;;;;;;5.72;4.63;;;;;;;17.48;66.32;101552.47;2064029;28;29080;-71
2022/09/06 04:18:58;;;;;;;9.10;4.60;;;;;;;17.50;65.77;101550.56;2071963;28;34613;-71
2022/09/06 04:20:03;;;;;;;6.53;4.53;;;;;;;17.50;66.10;101558.69;2071995;28;31594;-71
2022/09/06 04:21:05;;;;;;;5.97;4.78;;;;;;;17.51;65.50;101551.44;2071573;28;37777;-71
2022/09/06 04:22:10;;;;;;;5.10;4.70;;;;;;;17.52;65.40;101554.09;2071595;28;33215;-71
2022/09/06 04:23:12;;;;;;;4.82;4.40;;;;;;;17.52;65.83;101547.78;2071546;28;31548;-71
2022/09/06 04:24:14;;;;;;;6.75;4.60;;;;;;;17.50;65.89;101555.97;2071945;28;34215;-71
2022/09/06 04:25:15;;;;;;;5.05;4.53;;;;;;;17.51;65.95;101546.91;2071788;28;34293;-71
2022/09/06 04:26:17;;;;;;;5.38;4.70;;;;;;;17.53;65.93;101547.75;2071490;28;39441;-71
2022/09/06 04:27:19;;;;;;;4.40;4.10;;;;;;;17.51;65.53;101546.91;2062927;28;31466;-71
2022/09/06 04:28:21;;;;;;;5.57;4.80;;;;;;;17.52;65.63;101551.38;2063315;28;34492;-71
2022/09/06 04:29:26;;;;;;;5.00;4.47;;;;;;;17.52;65.29;101543.25;2062984;28;31262;-72
2022/09/06 04:30:28;;;;;;;7.57;4.45;;;;;;;17.50;66.04;101550.56;2064040;28;21155;-70
2022/09/06 04:31:29;;;;;;;6.40;4.82;;;;;;;17.50;65.58;101550.56;2071960;28;32536;-70
2022/09/06 04:32:34;;;;;;;6.63;4.40;;;;;;;17.49;65.91;101553.34;2071715;28;30747;-69
2022/09/06 04:33:37;;;;;;;5.72;4.53;;;;;;;17.48;66.06;101547.03;2071655;28;33756;-70
2022/09/06 04:34:39;;;;;;;4.38;3.97;;;;;;;17.49;65.76;101543.38;2071739;28;33560;-70
2022/09/06 04:35:40;;;;;;;7.03;4.22;;;;;;;17.48;65.62;101543.44;2054730;28;36548;-70
2022/09/06 04:36:42;;;;;;;7.55;4.40;;;;;;;17.48;65.55;101541.63;2055374;28;33587;-71
2022/09/06 04:37:48;;;;;;;7.40;4.53;;;;;;;17.49;65.46;101547.91;2072039;28;29465;-70
2022/09/06 04:38:50;;;;;;;6.28;4.80;;;;;;;17.48;66.01;101549.75;2071990;28;31978;-71
2022/09/06 04:39:52;;;;;;;6.60;4.05;;;;;;;17.49;65.47;101543.38;2063003;28;34424;-70
2022/09/06 04:40:54;;;;;;;6.22;4.65;;;;;;;17.49;65.41;101546.09;2063892;28;30430;-70
2022/09/06 04:41:56;;;;;;;4.93;4.53;;;;;;;17.49;65.59;101542.50;2070607;28;29540;-70
2022/09/06 04:42:58;;;;;;;5.20;4.40;;;;;;;17.47;65.63;101539.84;2070508;28;31831;-70
2022/09/06 04:43:59;;;;;;;6.47;4.60;;;;;;;17.48;65.29;101547.03;2071854;28;36858;-70
2022/09/06 04:45:01;;;;;;;5.20;4.70;;;;;;;17.46;65.83;101542.63;2071734;28;26609;-70
2022/09/06 04:46:22;;;;;;;6.63;4.82;;;;;;;17.45;65.63;101540.88;2072371;28;20131;-71
2022/09/06 04:47:24;;;;;;;5.15;4.47;;;;;;;17.43;65.69;101538.22;2062377;28;38538;-70
2022/09/06 04:48:26;;;;;;;4.60;4.20;;;;;;;17.43;65.78;101543.66;2065079;28;32666;-70
2022/09/06 04:49:28;;;;;;;8.77;4.70;;;;;;;17.42;65.47;101541.88;2071014;28;36237;-70
2022/09/06 04:50:30;;;;;;;4.70;4.32;;;;;;;17.41;65.99;101542.84;2062584;28;32962;-70
2022/09/06 04:51:38;;;;;;;4.82;4.40;;;;;;;17.42;65.77;101549.13;2064323;28;20047;-70
2022/09/06 04:52:41;;;;;;;5.05;4.40;;;;;;;17.40;65.65;101542.91;2072103;28;20892;-70
2022/09/06 04:53:43;;;;;;;7.68;4.57;;;;;;;17.39;66.04;101547.44;2071523;28;36055;-71
2022/09/06 04:54:44;;;;;;;5.53;4.45;;;;;;;17.38;66.09;101547.50;2062798;28;37063;-69
2022/09/06 04:55:46;;;;;;;4.65;4.15;;;;;;;17.39;66.01;101557.34;2063161;28;32241;-71
2022/09/06 04:56:48;;;;;;;5.22;4.72;;;;;;;17.38;66.06;101559.19;2070875;28;33692;-70
2022/09/06 04:57:49;;;;;;;9.35;4.47;;;;;;;17.39;65.83;101554.66;2071179;28;38511;-70
2022/09/06 04:58:53;;;;;;;7.40;4.60;;;;;;;17.36;65.87;101556.53;2071786;28;29366;-71
2022/09/06 04:59:55;;;;;;;4.95;4.55;;;;;;;17.40;65.68;101575.38;2071784;28;29669;-71
2022/09/06 05:00:57;;;;;;;5.15;4.40;;;;;;;17.41;65.85;101569.91;2071684;28;35192;-71
2022/09/06 05:01:59;;;;;;;4.95;4.32;;;;;;;17.43;65.70;101580.69;2072274;28;29507;-71
2022/09/06 05:03:01;;;;;;;5.03;4.60;;;;;;;17.42;65.73;101593.31;2054131;28;36793;-71
2022/09/06 05:04:02;;;;;;;4.72;4.32;;;;;;;17.44;65.10;101604.94;2054461;28;37002;-71
2022/09/06 05:05:05;;;;;;;6.28;4.18;;;;;;;17.44;65.20;101613.06;2071863;28;32342;-70
2022/09/06 05:06:11;;;;;;;5.10;4.15;;;;;;;17.44;65.29;101615.78;2071541;28;31869;-70
2022/09/06 05:07:12;;;;;;;6.47;3.90;;;;;;;17.45;65.17;101614.84;2071864;28;36868;-70
2022/09/06 05:08:17;;;;;;;6.60;4.50;;;;;;;17.47;65.36;101609.38;2054474;28;38098;-70
2022/09/06 05:09:19;;;;;;;4.72;4.05;;;;;;;17.47;65.23;101612.09;2055629;28;31058;-71
2022/09/06 05:10:22;;;;;;;4.45;4.05;;;;;;;17.47;65.06;101604.84;2062820;28;21920;-70
2022/09/06 05:11:26;;;;;;;5.20;4.70;;;;;;;17.47;65.21;101599.41;2062910;28;32699;-71